Time;durP1;ratioP1;P1;durP2;ratioP2;P2;SDS_P1;SDS_P2;PMS_P1;PMS_P2;Temp;Humidity;BMP_temperature;BMP_pressure;BME280_temperature;BME280_humidity;BME280_pressure;Samples;Min_cycle;Max_cycle;Signal;HPM_P1;HPM_P2
2021/06/05 00:00:25;;;;;;;210.13;77.83;;;16.70;99.90;;;;;;5076413;28;20193;-69
2021/06/05 00:02:54;;;;;;;203.27;78.60;;;16.70;99.90;;;;;;5074271;28;20196;-69
2021/06/05 00:05:24;;;;;;;211.87;79.47;;;16.60;99.90;;;;;;5074881;28;20368;-70
2021/06/05 00:07:53;;;;;;;226.13;82.70;;;16.60;99.90;;;;;;5071449;28;20180;-67
2021/06/05 00:10:25;;;;;;;249.67;82.47;;;16.70;99.90;;;;;;5071534;28;20429;-70
2021/06/05 00:12:54;;;;;;;298.00;89.10;;;16.60;99.90;;;;;;5081083;28;20200;-70
2021/06/05 00:15:27;;;;;;;341.40;94.37;;;16.60;99.90;;;;;;5078062;28;20458;-69
2021/06/05 00:17:55;;;;;;;337.77;96.20;;;16.60;99.90;;;;;;5077310;28;20189;-69
2021/06/05 00:20:28;;;;;;;337.67;95.20;;;16.40;99.90;;;;;;5077879;28;20353;-70
2021/06/05 00:22:57;;;;;;;400.70;99.77;;;16.30;99.90;;;;;;5073240;28;20191;-70
2021/06/05 00:25:28;;;;;;;365.27;99.03;;;16.30;99.90;;;;;;5080640;28;20204;-70
2021/06/05 00:27:56;;;;;;;392.60;101.43;;;16.20;99.90;;;;;;5077988;28;20235;-70
2021/06/05 00:30:26;;;;;;;374.43;100.23;;;16.20;99.90;;;;;;5075099;28;20310;-69
2021/06/05 00:32:55;;;;;;;355.50;97.27;;;16.10;99.90;;;;;;5074583;28;20253;-69
2021/06/05 00:35:24;;;;;;;361.03;99.43;;;16.10;99.90;;;;;;5077583;28;20176;-68
2021/06/05 00:37:52;;;;;;;365.57;102.73;;;16.10;99.90;;;;;;5079231;28;20180;-69
2021/06/05 00:40:23;;;;;;;360.03;100.03;;;16.00;99.90;;;;;;5074141;28;20297;-69
2021/06/05 00:42:52;;;;;;;324.97;97.83;;;15.90;99.90;;;;;;5075904;28;20441;-69
2021/06/05 00:45:22;;;;;;;353.97;97.87;;;15.90;99.90;;;;;;5070906;28;20188;-70
2021/06/05 00:47:52;;;;;;;367.97;102.47;;;15.80;99.90;;;;;;5076345;28;20234;-68
2021/06/05 00:50:21;;;;;;;353.00;100.40;;;15.80;99.90;;;;;;5051335;28;20205;-69
2021/06/05 00:52:50;;;;;;;348.03;99.80;;;15.70;99.90;;;;;;5075988;28;20184;-69
2021/06/05 00:55:21;;;;;;;358.67;100.90;;;15.70;99.90;;;;;;5078267;28;20211;-69
2021/06/05 00:57:49;;;;;;;324.50;96.80;;;15.60;99.90;;;;;;5076964;28;20180;-69
2021/06/05 01:00:27;;;;;;;312.30;97.37;;;15.60;99.90;;;;;;5075211;28;20176;-68
2021/06/05 01:02:58;;;;;;;332.47;96.80;;;15.50;99.90;;;;;;5081474;28;20239;-68
2021/06/05 01:05:27;;;;;;;311.53;95.20;;;15.50;99.90;;;;;;5080718;28;20227;-69
2021/06/05 01:07:58;;;;;;;293.93;91.40;;;15.50;99.90;;;;;;5081145;28;20200;-68
2021/06/05 01:10:31;;;;;;;297.73;94.27;;;15.40;99.90;;;;;;5073163;28;20188;-69
2021/06/05 01:13:07;;;;;;;285.53;94.53;;;15.40;99.90;;;;;;5077308;28;20225;-68
2021/06/05 01:15:40;;;;;;;275.43;93.37;;;15.40;99.90;;;;;;5080707;28;20535;-68
2021/06/05 01:18:16;;;;;;;295.07;94.80;;;15.30;99.90;;;;;;5061705;28;20233;-69
2021/06/05 01:20:54;;;;;;;300.77;95.13;;;15.30;99.90;;;;;;5082348;28;20180;-69
2021/06/05 01:23:31;;;;;;;276.40;92.60;;;15.30;99.90;;;;;;5071920;28;20225;-69
2021/06/05 01:26:08;;;;;;;290.37;93.57;;;15.30;99.90;;;;;;5077840;28;20364;-69
2021/06/05 01:28:40;;;;;;;258.33;88.53;;;15.30;99.90;;;;;;5080237;28;20184;-68
2021/06/05 01:31:11;;;;;;;290.73;90.73;;;15.30;99.90;;;;;;5079877;28;20180;-69
2021/06/05 01:33:42;;;;;;;295.03;93.60;;;15.20;99.90;;;;;;5081550;28;20241;-68
2021/06/05 01:36:11;;;;;;;271.57;90.57;;;15.20;99.90;;;;;;5082532;28;20188;-68
2021/06/05 01:38:42;;;;;;;254.83;87.93;;;15.10;99.90;;;;;;5078119;28;20184;-69
2021/06/05 01:41:14;;;;;;;244.10;88.67;;;15.10;99.90;;;;;;5057716;28;20255;-69
2021/06/05 01:43:44;;;;;;;270.80;91.87;;;15.00;99.90;;;;;;5076282;28;20185;-68
2021/06/05 01:46:15;;;;;;;256.93;88.83;;;15.00;99.90;;;;;;5080716;28;20219;-69
2021/06/05 01:48:43;;;;;;;275.33;90.67;;;15.00;99.90;;;;;;5080991;28;20168;-68
2021/06/05 01:51:17;;;;;;;269.33;92.33;;;15.00;99.90;;;;;;5073810;28;20242;-68
2021/06/05 01:53:54;;;;;;;278.83;91.73;;;15.00;99.90;;;;;;5073185;28;20207;-68
2021/06/05 01:56:28;;;;;;;260.57;88.37;;;15.00;99.90;;;;;;5075113;28;20356;-68
2021/06/05 01:58:57;;;;;;;238.43;82.73;;;15.00;99.90;;;;;;5059529;28;20196;-68
2021/06/05 02:01:25;;;;;;;241.17;81.67;;;14.90;99.90;;;;;;5080525;28;20195;-68
2021/06/05 02:03:53;;;;;;;237.57;83.37;;;14.90;99.90;;;;;;5056061;28;20196;-68
2021/06/05 02:06:23;;;;;;;227.80;83.17;;;14.80;99.90;;;;;;5074987;28;20234;-68
2021/06/05 02:08:51;;;;;;;236.60;85.20;;;14.80;99.90;;;;;;5075293;28;20188;-68
2021/06/05 02:11:21;;;;;;;227.00;83.87;;;14.80;99.90;;;;;;5081787;28;20176;-68
2021/06/05 02:13:56;;;;;;;229.80;82.00;;;14.80;99.90;;;;;;5078409;28;20184;-68
2021/06/05 02:16:30;;;;;;;214.47;79.63;;;14.80;99.90;;;;;;5081549;28;20574;-68
2021/06/05 02:19:01;;;;;;;220.23;78.70;;;14.70;99.90;;;;;;5062924;28;20219;-68
2021/06/05 02:21:33;;;;;;;188.97;72.50;;;14.70;99.90;;;;;;5075522;28;20193;-68
2021/06/05 02:24:05;;;;;;;182.07;69.77;;;14.70;99.90;;;;;;5077741;28;20179;-69
2021/06/05 02:26:35;;;;;;;164.33;68.17;;;14.70;99.90;;;;;;5081299;28;20204;-69
2021/06/05 02:29:21;;;;;;;154.30;65.60;;;14.70;99.90;;;;;;5064063;28;20232;-68
2021/06/05 02:31:53;;;;;;;136.40;62.13;;;14.60;99.90;;;;;;5077609;28;20181;-68
2021/06/05 02:34:25;;;;;;;137.60;62.50;;;14.60;99.90;;;;;;5078961;28;20255;-68
2021/06/05 02:36:57;;;;;;;136.70;61.37;;;14.50;99.90;;;;;;5061566;28;20180;-68
2021/06/05 02:39:25;;;;;;;122.50;59.37;;;14.50;99.90;;;;;;5071948;28;20185;-68
2021/06/05 02:41:55;;;;;;;117.37;57.20;;;14.50;99.90;;;;;;5080236;28;20183;-68
2021/06/05 02:44:29;;;;;;;112.83;54.60;;;14.40;99.90;;;;;;5078928;28;20384;-68
2021/06/05 02:46:58;;;;;;;115.77;56.10;;;14.40;99.90;;;;;;5074105;28;20283;-68
2021/06/05 02:49:30;;;;;;;95.53;49.23;;;14.40;99.90;;;;;;5073859;28;20195;-68
2021/06/05 02:52:01;;;;;;;96.73;49.03;;;14.40;99.90;;;;;;5073162;28;20189;-69
2021/06/05 02:54:29;;;;;;;89.17;46.63;;;14.30;99.90;;;;;;5075734;28;20219;-69
2021/06/05 02:56:57;;;;;;;91.10;45.33;;;14.40;99.90;;;;;;5080906;28;20463;-69
2021/06/05 02:59:26;;;;;;;84.33;44.17;;;14.40;99.90;;;;;;5075248;28;20189;-68
2021/06/05 03:01:55;;;;;;;78.00;41.03;;;14.40;99.90;;;;;;5077509;28;20435;-68
2021/06/05 03:04:24;;;;;;;65.93;39.67;;;14.30;99.90;;;;;;5079243;28;20230;-68
2021/06/05 03:06:52;;;;;;;69.93;39.73;;;14.30;99.90;;;;;;5079000;28;20208;-68
2021/06/05 03:09:21;;;;;;;88.97;40.53;;;14.30;99.90;;;;;;5077286;28;20180;-68
2021/06/05 03:11:50;;;;;;;79.80;40.43;;;14.30;99.90;;;;;;5073633;28;20179;-68
2021/06/05 03:14:18;;;;;;;69.40;38.40;;;14.40;99.90;;;;;;5068991;28;20195;-68
2021/06/05 03:16:47;;;;;;;70.87;38.40;;;14.30;99.90;;;;;;5075927;28;20425;-68
2021/06/05 03:19:15;;;;;;;68.67;38.53;;;14.30;99.90;;;;;;5062706;28;20216;-68
2021/06/05 03:21:43;;;;;;;69.57;36.77;;;14.30;99.90;;;;;;5074950;28;20212;-68
2021/06/05 03:24:11;;;;;;;67.97;36.93;;;14.30;99.90;;;;;;5076240;28;20260;-69
2021/06/05 03:26:39;;;;;;;62.80;37.10;;;14.30;99.90;;;;;;5077028;28;20200;-68
2021/06/05 03:29:07;;;;;;;54.57;35.57;;;14.30;99.90;;;;;;5079904;28;20430;-69
2021/06/05 03:31:35;;;;;;;64.30;36.00;;;14.30;99.90;;;;;;5080075;28;20187;-68
2021/06/05 03:34:05;;;;;;;52.17;33.67;;;14.30;99.90;;;;;;5068807;28;20356;-68
2021/06/05 03:36:33;;;;;;;56.90;32.33;;;14.30;99.90;;;;;;5073098;28;20233;-68
2021/06/05 03:39:01;;;;;;;65.37;34.97;;;14.30;99.90;;;;;;5080363;28;20175;-68
2021/06/05 03:41:29;;;;;;;59.37;33.50;;;14.30;99.90;;;;;;5070928;28;20241;-68
2021/06/05 03:43:57;;;;;;;60.60;33.83;;;14.30;99.90;;;;;;5075998;28;20234;-68
2021/06/05 03:46:25;;;;;;;59.30;34.00;;;14.30;99.90;;;;;;5079241;28;20186;-68
2021/06/05 03:48:53;;;;;;;59.63;34.57;;;14.30;99.90;;;;;;5082417;28;20243;-68
2021/06/05 03:51:23;;;;;;;56.90;34.40;;;14.30;99.90;;;;;;5071911;28;20196;-68
2021/06/05 03:53:51;;;;;;;61.10;34.97;;;14.30;99.90;;;;;;5076631;28;20218;-68
2021/06/05 03:56:19;;;;;;;54.63;33.87;;;14.30;99.90;;;;;;5077058;28;20191;-68
2021/06/05 03:58:48;;;;;;;53.40;33.27;;;14.30;99.90;;;;;;5076066;28;20181;-69
2021/06/05 04:01:22;;;;;;;58.20;31.27;;;14.20;99.90;;;;;;5070321;28;20280;-69
2021/06/05 04:03:50;;;;;;;46.60;31.23;;;14.20;99.90;;;;;;5071808;28;20199;-68
2021/06/05 04:06:20;;;;;;;52.70;29.57;;;14.20;99.90;;;;;;5075184;28;20183;-68
2021/06/05 04:08:50;;;;;;;43.50;28.50;;;14.20;99.90;;;;;;5078177;28;20218;-68
2021/06/05 04:11:19;;;;;;;50.23;28.07;;;14.20;99.90;;;;;;5074010;28;20285;-68
2021/06/05 04:13:47;;;;;;;43.17;26.07;;;14.20;99.90;;;;;;5078805;28;20176;-68
2021/06/05 04:16:17;;;;;;;43.40;26.63;;;14.20;99.90;;;;;;5078340;28;20495;-68
2021/06/05 04:18:46;;;;;;;40.73;24.43;;;14.20;99.90;;;;;;5078712;28;20219;-68
2021/06/05 04:21:16;;;;;;;36.27;24.43;;;14.20;99.90;;;;;;5080723;28;20413;-68
2021/06/05 04:23:44;;;;;;;38.50;23.27;;;14.20;99.90;;;;;;5074378;28;20348;-68
2021/06/05 04:26:14;;;;;;;35.07;23.67;;;14.20;99.90;;;;;;5077011;28;20214;-68
2021/06/05 04:28:42;;;;;;;43.20;24.70;;;14.20;99.90;;;;;;5074732;28;20394;-68
2021/06/05 04:31:11;;;;;;;38.47;23.83;;;14.20;99.90;;;;;;5076642;28;20246;-68
2021/06/05 04:33:40;;;;;;;34.03;22.83;;;14.20;99.90;;;;;;5080738;28;20203;-65
2021/06/05 04:36:11;;;;;;;32.20;22.83;;;14.20;99.90;;;;;;5081419;28;20421;-69
2021/06/05 04:38:40;;;;;;;33.67;24.23;;;14.20;99.90;;;;;;5072726;28;20187;-67
2021/06/05 04:41:10;;;;;;;36.50;24.40;;;14.20;99.90;;;;;;5083556;28;20185;-69
2021/06/05 04:43:40;;;;;;;34.40;24.53;;;14.20;99.90;;;;;;5080581;28;20294;-68
2021/06/05 04:46:08;;;;;;;46.50;25.13;;;14.20;99.90;;;;;;5077177;28;20180;-69
2021/06/05 04:48:37;;;;;;;34.90;24.40;;;14.20;99.90;;;;;;5079574;28;20283;-69
2021/06/05 04:51:05;;;;;;;40.20;26.17;;;14.30;99.90;;;;;;5081629;28;20175;-69
2021/06/05 04:53:33;;;;;;;43.17;25.50;;;14.20;99.90;;;;;;5073770;28;20236;-69
2021/06/05 04:56:02;;;;;;;40.50;27.07;;;14.30;99.90;;;;;;5073213;28;20184;-68
2021/06/05 04:58:30;;;;;;;45.13;27.00;;;14.30;99.90;;;;;;5079380;28;20239;-68
2021/06/05 05:01:00;;;;;;;42.43;27.40;;;14.20;99.90;;;;;;5078934;28;20180;-68
2021/06/05 05:03:29;;;;;;;46.63;29.03;;;14.20;99.90;;;;;;5082120;28;20184;-68
2021/06/05 05:06:00;;;;;;;52.20;31.37;;;14.20;99.90;;;;;;5076523;28;20496;-69
2021/06/05 05:08:29;;;;;;;44.67;30.07;;;14.20;99.90;;;;;;5083155;28;20518;-69
2021/06/05 05:10:58;;;;;;;53.40;31.83;;;14.20;99.90;;;;;;5079349;28;20367;-69
2021/06/05 05:13:29;;;;;;;49.43;30.43;;;14.20;99.90;;;;;;5079249;28;20184;-69
2021/06/05 05:16:00;;;;;;;51.70;31.70;;;14.10;99.90;;;;;;5080305;28;20184;-69
2021/06/05 05:18:29;;;;;;;54.13;32.57;;;14.10;99.90;;;;;;5078070;28;20229;-68
2021/06/05 05:20:57;;;;;;;63.80;35.83;;;14.10;99.90;;;;;;5078445;28;20188;-69
2021/06/05 05:23:27;;;;;;;63.53;36.67;;;14.20;99.90;;;;;;5073749;28;20186;-69
2021/06/05 05:25:57;;;;;;;73.87;38.67;;;14.10;99.90;;;;;;5061203;28;20268;-69
2021/06/05 05:28:26;;;;;;;73.03;38.73;;;14.10;99.90;;;;;;5080065;28;20516;-69
2021/06/05 05:30:56;;;;;;;70.20;38.63;;;14.10;99.90;;;;;;5078103;28;20207;-69
2021/06/05 05:33:26;;;;;;;67.77;37.63;;;14.10;99.90;;;;;;5069773;28;20217;-69
2021/06/05 05:35:58;;;;;;;71.93;37.90;;;14.10;99.90;;;;;;5077602;28;20208;-68
2021/06/05 05:38:26;;;;;;;68.83;38.07;;;14.10;99.90;;;;;;5077772;28;20345;-69
2021/06/05 05:40:54;;;;;;;78.17;40.07;;;14.10;99.90;;;;;;5081713;28;20187;-69
2021/06/05 05:43:22;;;;;;;73.60;40.03;;;14.10;99.90;;;;;;5082701;28;20528;-69
2021/06/05 05:45:50;;;;;;;66.50;37.23;;;14.10;99.90;;;;;;5078580;28;20188;-69
2021/06/05 05:48:18;;;;;;;62.70;36.17;;;14.10;99.90;;;;;;5065135;28;20363;-69
2021/06/05 05:50:48;;;;;;;72.13;38.23;;;14.10;99.90;;;;;;5085232;28;20235;-69
2021/06/05 05:53:16;;;;;;;60.10;36.73;;;14.10;99.90;;;;;;5072019;28;20184;-68
2021/06/05 05:55:44;;;;;;;58.47;37.80;;;14.10;99.90;;;;;;5072867;28;20327;-66
2021/06/05 05:58:20;;;;;;;62.63;36.10;;;14.10;99.90;;;;;;5075805;28;20180;-69
2021/06/05 06:00:49;;;;;;;58.33;35.60;;;14.10;99.90;;;;;;5077193;28;20180;-69
2021/06/05 06:03:19;;;;;;;69.77;39.90;;;14.10;99.90;;;;;;5068080;28;20188;-69
2021/06/05 06:05:48;;;;;;;65.80;37.73;;;14.10;99.90;;;;;;5064274;28;20271;-69
2021/06/05 06:08:20;;;;;;;69.20;39.83;;;14.10;99.90;;;;;;5078396;28;20484;-68
2021/06/05 06:10:49;;;;;;;69.17;39.63;;;14.10;99.90;;;;;;5078440;28;20233;-68
2021/06/05 06:13:17;;;;;;;64.67;39.33;;;14.10;99.90;;;;;;5090740;28;20192;-69
2021/06/05 06:15:45;;;;;;;58.10;37.07;;;14.10;99.90;;;;;;5083923;28;20217;-68
2021/06/05 06:18:14;;;;;;;50.63;34.20;;;14.10;99.90;;;;;;5082614;28;20184;-69
2021/06/05 06:20:44;;;;;;;59.43;35.20;;;14.20;99.90;;;;;;5081256;28;20176;-69
2021/06/05 06:23:15;;;;;;;57.13;36.67;;;14.10;99.90;;;;;;5081688;28;20179;-69
2021/06/05 06:25:43;;;;;;;54.40;34.97;;;14.20;99.90;;;;;;5075063;28;20230;-68
2021/06/05 06:28:14;;;;;;;54.03;34.33;;;14.20;99.90;;;;;;5070056;28;20254;-69
2021/06/05 06:30:43;;;;;;;56.40;34.27;;;14.20;99.90;;;;;;5063080;28;20177;-69
2021/06/05 06:33:13;;;;;;;51.50;33.40;;;14.20;99.90;;;;;;5082561;28;20186;-69
2021/06/05 06:35:43;;;;;;;57.10;34.50;;;14.20;99.90;;;;;;5082515;28;20306;-67
2021/06/05 06:38:15;;;;;;;58.70;35.57;;;14.20;99.90;;;;;;5081547;28;20246;-69
2021/06/05 06:40:44;;;;;;;56.47;35.30;;;14.30;99.90;;;;;;5074514;28;20226;-69
2021/06/05 06:43:17;;;;;;;53.03;34.27;;;14.30;99.90;;;;;;5076326;28;20192;-69
2021/06/05 06:45:45;;;;;;;52.27;34.30;;;14.30;99.90;;;;;;5073060;28;20403;-69
2021/06/05 06:48:13;;;;;;;59.10;35.23;;;14.30;99.90;;;;;;5079558;28;20212;-69
2021/06/05 06:50:41;;;;;;;61.83;36.33;;;14.30;99.90;;;;;;5078523;28;20207;-69
2021/06/05 06:53:09;;;;;;;59.90;36.27;;;14.30;99.90;;;;;;5079790;28;20196;-68
2021/06/05 06:55:38;;;;;;;58.63;35.10;;;14.30;99.90;;;;;;5077768;28;20518;-69
2021/06/05 06:58:07;;;;;;;59.87;36.27;;;14.40;99.90;;;;;;5073744;28;20200;-69
2021/06/05 07:00:37;;;;;;;59.17;35.43;;;14.40;99.90;;;;;;5076823;28;20233;-69
2021/06/05 07:03:06;;;;;;;51.53;33.50;;;14.40;99.90;;;;;;5081529;28;20312;-69
2021/06/05 07:05:35;;;;;;;50.80;33.93;;;14.40;99.90;;;;;;5073564;28;20188;-69
2021/06/05 07:08:08;;;;;;;50.87;33.10;;;14.40;99.90;;;;;;5080442;28;20207;-69
2021/06/05 07:10:36;;;;;;;45.20;30.77;;;14.40;99.90;;;;;;5083671;28;20363;-68
2021/06/05 07:13:07;;;;;;;42.83;29.93;;;14.40;99.90;;;;;;5073629;28;20180;-69
2021/06/05 07:15:35;;;;;;;47.60;29.70;;;14.50;99.90;;;;;;5089751;28;20341;-68
2021/06/05 07:18:04;;;;;;;44.17;28.43;;;14.60;99.90;;;;;;5066873;28;20393;-69
2021/06/05 07:20:36;;;;;;;42.53;28.93;;;14.50;99.90;;;;;;5075834;28;20211;-69
2021/06/05 07:23:05;;;;;;;41.30;26.43;;;14.60;99.90;;;;;;5059521;28;20184;-70
2021/06/05 07:25:33;;;;;;;40.43;28.80;;;14.60;99.90;;;;;;5056317;28;20253;-68
2021/06/05 07:28:14;;;;;;;43.13;28.23;;;14.60;99.90;;;;;;5074309;28;20468;-69
2021/06/05 07:30:42;;;;;;;45.30;29.57;;;14.60;99.90;;;;;;5082956;28;20528;-70
2021/06/05 07:33:11;;;;;;;42.97;28.97;;;14.60;99.90;;;;;;5075939;28;20197;-69
2021/06/05 07:35:39;;;;;;;38.77;28.80;;;14.70;99.90;;;;;;5080008;28;20254;-69
2021/06/05 07:38:08;;;;;;;41.93;28.70;;;14.70;99.90;;;;;;5076245;28;20553;-69
2021/06/05 07:40:38;;;;;;;38.70;27.23;;;14.70;99.90;;;;;;5081330;28;20394;-69
2021/06/05 07:43:06;;;;;;;41.10;28.67;;;14.70;99.90;;;;;;5074012;28;20237;-69
2021/06/05 07:45:35;;;;;;;44.77;29.67;;;14.70;99.90;;;;;;5081841;28;20196;-70
2021/06/05 07:48:04;;;;;;;42.90;28.33;;;14.70;99.90;;;;;;5074734;28;20341;-69
2021/06/05 07:50:32;;;;;;;35.17;26.13;;;14.80;99.90;;;;;;5077556;28;20204;-70
2021/06/05 07:53:00;;;;;;;37.20;26.43;;;14.80;99.90;;;;;;5078260;28;20180;-69
2021/06/05 07:55:29;;;;;;;35.50;26.23;;;14.90;99.90;;;;;;5076136;28;20220;-69
2021/06/05 07:57:57;;;;;;;36.57;26.43;;;14.90;99.90;;;;;;5062054;28;20192;-69
2021/06/05 08:00:28;;;;;;;36.90;26.43;;;14.90;99.90;;;;;;5079635;28;20187;-69
2021/06/05 08:02:57;;;;;;;37.30;26.70;;;14.90;99.90;;;;;;5060626;28;20192;-69
2021/06/05 08:05:26;;;;;;;33.77;25.23;;;14.90;99.90;;;;;;5080050;28;20182;-69
2021/06/05 08:07:54;;;;;;;35.57;25.67;;;14.90;99.90;;;;;;5079721;28;20184;-69
2021/06/05 08:10:24;;;;;;;35.47;25.50;;;14.90;99.90;;;;;;5084295;28;20193;-70
2021/06/05 08:12:52;;;;;;;34.80;25.57;;;14.90;99.90;;;;;;5060360;28;20175;-69
2021/06/05 08:15:25;;;;;;;35.23;25.20;;;14.80;99.90;;;;;;5085925;28;20180;-69
2021/06/05 08:17:53;;;;;;;32.03;23.63;;;14.80;99.90;;;;;;5079667;28;20180;-69
2021/06/05 08:20:27;;;;;;;29.87;23.00;;;14.70;99.90;;;;;;5081729;28;20583;-69
2021/06/05 08:22:57;;;;;;;33.67;24.13;;;14.70;99.90;;;;;;5086890;28;20486;-70
2021/06/05 08:25:25;;;;;;;32.93;24.53;;;14.70;99.90;;;;;;5083613;28;20180;-70
2021/06/05 08:27:54;;;;;;;33.97;24.63;;;14.60;99.90;;;;;;5077231;28;20184;-69
2021/06/05 08:30:26;;;;;;;35.10;26.63;;;14.70;99.90;;;;;;5078275;28;20482;-69
2021/06/05 08:32:53;;;;;;;36.10;26.73;;;14.60;99.90;;;;;;5071282;28;20208;-69
2021/06/05 08:35:24;;;;;;;40.57;27.57;;;14.70;99.90;;;;;;5083153;28;20179;-68
2021/06/05 08:37:51;;;;;;;38.53;27.53;;;14.70;99.90;;;;;;5079368;28;20229;-69
2021/06/05 08:40:24;;;;;;;42.90;29.43;;;14.70;99.90;;;;;;5084925;28;20230;-69
2021/06/05 08:42:54;;;;;;;42.27;28.67;;;14.70;99.90;;;;;;5079644;28;20452;-68
2021/06/05 08:45:28;;;;;;;39.20;27.37;;;14.60;99.90;;;;;;5079570;28;20203;-68
2021/06/05 08:47:57;;;;;;;38.17;27.60;;;14.60;99.90;;;;;;5079508;28;20298;-69
2021/06/05 08:50:30;;;;;;;34.93;26.63;;;14.60;99.90;;;;;;5082353;28;20184;-68
2021/06/05 08:53:03;;;;;;;35.17;25.80;;;14.60;99.90;;;;;;5077166;28;20188;-69
2021/06/05 08:55:38;;;;;;;34.43;25.23;;;14.60;99.90;;;;;;5061815;28;20217;-69
2021/06/05 08:58:15;;;;;;;32.80;23.70;;;14.70;99.90;;;;;;5063894;28;20191;-69
2021/06/05 09:00:46;;;;;;;29.67;22.30;;;14.70;99.90;;;;;;5064298;28;20238;-69
2021/06/05 09:03:18;;;;;;;31.27;22.03;;;14.70;99.90;;;;;;5062381;28;20238;-69
2021/06/05 09:05:56;;;;;;;27.50;19.97;;;14.80;99.90;;;;;;5063475;28;20189;-69
2021/06/05 09:08:25;;;;;;;26.10;20.53;;;14.80;99.90;;;;;;5060617;28;20319;-69
2021/06/05 09:11:09;;;;;;;25.40;18.93;;;14.80;99.90;;;;;;5063028;28;20188;-69
2021/06/05 09:13:39;;;;;;;23.47;18.33;;;14.80;99.90;;;;;;5062619;28;20223;-68
2021/06/05 09:16:35;;;;;;;25.47;19.67;;;14.80;99.90;;;;;;5064054;28;20184;-69
2021/06/05 09:19:13;;;;;;;28.10;19.70;;;14.80;99.90;;;;;;5054199;28;20445;-69
2021/06/05 09:21:46;;;;;;;26.93;20.03;;;14.80;99.90;;;;;;5064088;28;20452;-69
2021/06/05 09:24:19;;;;;;;29.13;20.00;;;14.70;99.90;;;;;;5059973;28;20345;-70
2021/06/05 09:27:04;;;;;;;25.50;19.83;;;14.80;99.90;;;;;;5062787;28;20180;-69
2021/06/05 09:29:44;;;;;;;31.17;21.47;;;14.70;99.90;;;;;;5064161;28;20212;-69
2021/06/05 09:32:15;;;;;;;26.47;20.57;;;14.70;99.90;;;;;;5063619;28;20204;-69
2021/06/05 09:34:44;;;;;;;26.00;19.83;;;14.70;99.90;;;;;;5063240;28;20187;-70
2021/06/05 09:37:39;;;;;;;29.83;21.33;;;14.60;99.90;;;;;;5054660;28;20242;-69
2021/06/05 09:40:22;;;;;;;28.17;20.00;;;14.50;99.90;;;;;;5061803;28;20242;-69
2021/06/05 09:42:53;;;;;;;27.67;19.70;;;14.50;99.90;;;;;;5061931;28;20212;-69
2021/06/05 09:45:36;;;;;;;26.27;18.97;;;14.60;99.90;;;;;;5058267;28;20215;-70
2021/06/05 09:48:31;;;;;;;29.60;19.10;;;14.50;99.90;;;;;;5062491;28;20180;-69
2021/06/05 09:51:03;;;;;;;28.23;18.50;;;14.60;99.90;;;;;;5068103;28;20180;-69
2021/06/05 09:53:35;;;;;;;28.23;19.63;;;14.60;99.90;;;;;;5066159;28;20234;-69
2021/06/05 09:56:22;;;;;;;31.33;19.03;;;14.60;99.90;;;;;;5083234;28;20409;-69
2021/06/05 09:59:01;;;;;;;23.93;17.20;;;14.70;99.90;;;;;;5075458;28;20191;-68
2021/06/05 10:01:32;;;;;;;23.70;17.57;;;14.60;99.90;;;;;;5070921;28;20186;-69
2021/06/05 10:04:21;;;;;;;25.33;17.90;;;14.70;99.90;;;;;;5071152;28;20199;-69
2021/06/05 10:06:52;;;;;;;29.03;19.80;;;14.70;99.90;;;;;;5082334;28;20230;-69
2021/06/05 10:09:41;;;;;;;32.20;19.47;;;14.70;99.90;;;;;;5081357;28;20369;-69
2021/06/05 10:12:15;;;;;;;23.13;16.90;;;14.70;99.90;;;;;;5082082;28;20251;-69
2021/06/05 10:14:52;;;;;;;27.80;17.33;;;14.80;99.90;;;;;;5082392;28;20318;-69
2021/06/05 10:17:37;;;;;;;25.47;16.70;;;14.80;99.90;;;;;;5078794;28;20367;-69
2021/06/05 10:20:24;;;;;;;25.30;16.67;;;14.80;99.90;;;;;;5078601;28;20176;-69
2021/06/05 10:22:55;;;;;;;27.57;17.93;;;14.80;99.90;;;;;;5081587;28;20183;-69
2021/06/05 10:25:36;;;;;;;23.37;16.30;;;14.80;99.90;;;;;;5079482;28;20318;-69
2021/06/05 10:28:06;;;;;;;19.57;15.80;;;14.90;99.90;;;;;;5069262;28;20229;-69
2021/06/05 10:30:47;;;;;;;23.77;16.27;;;14.80;99.90;;;;;;5083095;28;20261;-69
2021/06/05 10:33:24;;;;;;;23.53;15.93;;;14.80;99.90;;;;;;5083008;28;20249;-69
2021/06/05 10:35:55;;;;;;;20.80;16.50;;;14.80;99.90;;;;;;5079703;28;20417;-69
2021/06/05 10:38:35;;;;;;;28.67;17.63;;;14.80;99.90;;;;;;5082773;28;20380;-69
2021/06/05 10:41:05;;;;;;;28.97;17.43;;;14.80;99.90;;;;;;5077760;28;20238;-69
2021/06/05 10:43:33;;;;;;;25.93;15.63;;;14.90;99.90;;;;;;5077586;28;20474;-69
2021/06/05 10:46:15;;;;;;;27.90;16.20;;;14.80;99.90;;;;;;5071783;28;20436;-68
2021/06/05 10:48:46;;;;;;;20.10;15.10;;;14.80;99.90;;;;;;5083368;28;20259;-69
2021/06/05 10:51:18;;;;;;;23.07;15.57;;;14.90;99.90;;;;;;5083280;28;20176;-69
2021/06/05 10:53:59;;;;;;;23.97;15.40;;;15.00;99.90;;;;;;5082724;28;20219;-68
2021/06/05 10:56:41;;;;;;;21.97;14.27;;;15.00;99.90;;;;;;5082407;28;20176;-69
2021/06/05 10:59:46;;;;;;;23.63;15.40;;;14.90;99.90;;;;;;5064195;28;20322;-69
2021/06/05 11:02:35;;;;;;;21.77;14.53;;;15.00;99.90;;;;;;5074985;28;20176;-69
2021/06/05 11:05:30;;;;;;;25.60;15.87;;;15.10;99.90;;;;;;5082229;28;20421;-69
2021/06/05 11:08:37;;;;;;;25.93;15.27;;;15.20;99.90;;;;;;5075863;28;20189;-69
2021/06/05 11:11:38;;;;;;;23.17;15.17;;;15.20;99.90;;;;;;5000121;28;20261;-70
2021/06/05 11:14:41;;;;;;;20.73;14.37;;;15.20;99.90;;;;;;4999693;28;20267;-69
2021/06/05 11:17:26;;;;;;;27.07;15.47;;;15.30;99.90;;;;;;5051853;28;20208;-70
2021/06/05 11:20:34;;;;;;;23.83;14.77;;;15.30;99.90;;;;;;5063458;28;20236;-69
2021/06/05 11:23:24;;;;;;;23.03;15.30;;;15.20;99.90;;;;;;5078548;28;20182;-70
2021/06/05 11:25:55;;;;;;;26.57;15.63;;;15.30;99.90;;;;;;5081702;28;20233;-69
2021/06/05 11:28:44;;;;;;;23.03;15.33;;;15.30;99.90;;;;;;5077720;28;20222;-69
2021/06/05 11:31:49;;;;;;;25.70;15.03;;;15.20;99.90;;;;;;5070977;28;20231;-70
2021/06/05 11:34:54;;;;;;;25.17;14.77;;;15.30;99.90;;;;;;5081302;28;20397;-69
2021/06/05 11:38:01;;;;;;;22.83;14.17;;;15.30;99.90;;;;;;5076355;28;20187;-70
2021/06/05 11:40:57;;;;;;;19.77;14.47;;;15.40;99.90;;;;;;5074459;28;20203;-69
2021/06/05 11:43:48;;;;;;;24.77;16.10;;;15.30;99.90;;;;;;5062904;28;20179;-69
2021/06/05 11:46:44;;;;;;;22.57;15.37;;;15.40;99.90;;;;;;5074724;28;20201;-70
2021/06/05 11:49:46;;;;;;;21.70;15.37;;;15.30;99.90;;;;;;5070231;28;20188;-69
2021/06/05 11:52:44;;;;;;;19.83;14.97;;;15.30;99.90;;;;;;5059208;28;20206;-69
2021/06/05 11:55:44;;;;;;;20.20;14.40;;;15.40;99.90;;;;;;5078053;28;20216;-70
2021/06/05 11:58:30;;;;;;;18.90;13.53;;;15.40;99.90;;;;;;5083516;28;20184;-69
2021/06/05 12:01:22;;;;;;;20.93;14.77;;;15.50;99.90;;;;;;5081096;28;20233;-69
2021/06/05 12:04:04;;;;;;;21.53;14.63;;;15.60;99.90;;;;;;5083135;28;20257;-69
2021/06/05 12:06:36;;;;;;;20.00;14.90;;;15.60;99.90;;;;;;5081942;28;20179;-69
2021/06/05 12:09:15;;;;;;;23.90;15.40;;;15.70;99.90;;;;;;5081151;28;20180;-69
2021/06/05 12:11:46;;;;;;;21.10;13.87;;;15.80;99.90;;;;;;5062880;28;20202;-70
2021/06/05 12:14:26;;;;;;;18.43;13.37;;;16.00;99.90;;;;;;5075244;28;20484;-68
2021/06/05 12:16:58;;;;;;;17.07;12.47;;;16.20;99.90;;;;;;5081168;28;20183;-69
2021/06/05 12:19:31;;;;;;;16.23;12.20;;;16.30;99.90;;;;;;5078878;28;20231;-69
2021/06/05 12:22:14;;;;;;;16.53;12.30;;;16.50;99.90;;;;;;5078626;28;20205;-69
2021/06/05 12:24:47;;;;;;;16.77;12.00;;;16.50;99.90;;;;;;5077536;28;20179;-70
2021/06/05 12:27:25;;;;;;;13.53;10.20;;;16.50;99.90;;;;;;5081894;28;20229;-70
2021/06/05 12:30:07;;;;;;;13.93;10.43;;;16.50;99.90;;;;;;5064379;28;20199;-69
2021/06/05 12:32:52;;;;;;;12.27;9.93;;;16.70;99.90;;;;;;5082848;28;20196;-70
2021/06/05 12:35:24;;;;;;;13.90;9.67;;;17.00;99.90;;;;;;5048765;28;20192;-68
2021/06/05 12:37:54;;;;;;;12.33;9.47;;;17.10;99.90;;;;;;5070846;28;20230;-70
2021/06/05 12:40:28;;;;;;;10.50;8.80;;;17.40;99.90;;;;;;5073589;28;20186;-70
2021/06/05 12:42:58;;;;;;;11.57;8.83;;;17.60;99.90;;;;;;5082841;28;20184;-70
2021/06/05 12:45:29;;;;;;;11.30;9.17;;;17.80;99.90;;;;;;5075723;28;20183;-69
2021/06/05 12:47:59;;;;;;;12.43;8.73;;;17.90;99.90;;;;;;5073718;28;20180;-70
2021/06/05 12:50:31;;;;;;;13.03;9.60;;;18.00;99.90;;;;;;5076948;28;20211;-69
2021/06/05 12:53:01;;;;;;;16.27;10.90;;;18.10;99.90;;;;;;5081639;28;20180;-69
2021/06/05 12:55:37;;;;;;;15.47;11.00;;;18.10;99.90;;;;;;5082315;28;20226;-69